createdAt,value
2023-04-23T00:01:48.364Z,22.80
2023-04-23T00:04:22.004Z,19.90
2023-04-23T00:06:53.079Z,14.80
2023-04-23T00:09:23.505Z,16.50
2023-04-23T00:11:52.683Z,22.40
2023-04-23T00:14:21.474Z,25.00
2023-04-23T00:16:50.657Z,16.40
2023-04-23T00:19:19.698Z,16.50
2023-04-23T00:21:48.241Z,16.90
2023-04-23T00:24:17.082Z,16.30
2023-04-23T00:26:46.044Z,15.30
2023-04-23T00:29:14.588Z,19.40
2023-04-23T00:31:43.399Z,17.60
2023-04-23T00:34:12.441Z,18.40
2023-04-23T00:36:41.343Z,19.40
2023-04-23T00:39:11.644Z,16.30
2023-04-23T00:41:41.996Z,15.80
2023-04-23T00:46:40.138Z,15.10
2023-04-23T00:49:09.275Z,15.10
2023-04-23T00:51:37.801Z,20.70
2023-04-23T00:54:07.948Z,11.80
2023-04-23T00:56:37.350Z,17.60
2023-04-23T00:59:06.087Z,15.60
2023-04-23T01:01:35.946Z,18.40
2023-04-23T01:04:05.484Z,19.80
2023-04-23T01:06:34.361Z,12.10
2023-04-23T01:09:04.012Z,17.00
2023-04-23T01:11:32.980Z,15.60
2023-04-23T01:14:02.547Z,16.80
2023-04-23T01:16:31.501Z,16.00
2023-04-23T01:19:00.338Z,18.50
2023-04-23T01:21:30.054Z,17.10
2023-04-23T01:23:59.356Z,15.70
2023-04-23T01:26:28.354Z,15.10
2023-04-23T01:28:59.077Z,14.30
2023-04-23T01:31:30.291Z,23.20
2023-04-23T01:34:01.121Z,19.30
2023-04-23T01:36:31.849Z,13.50
2023-04-23T01:39:00.848Z,20.60
2023-04-23T01:41:30.884Z,11.70
2023-04-23T01:44:01.258Z,18.00
2023-04-23T01:46:31.054Z,15.60
2023-04-23T01:49:00.349Z,21.40
2023-04-23T01:51:30.514Z,18.70
2023-04-23T01:53:59.240Z,14.90
2023-04-23T01:56:29.181Z,12.70
2023-04-23T01:58:59.121Z,15.20
2023-04-23T02:01:47.184Z,11.50
2023-04-23T02:04:17.298Z,13.30
2023-04-23T02:06:48.453Z,12.40
2023-04-23T02:09:17.271Z,19.60
2023-04-23T02:11:46.474Z,17.20
2023-04-23T02:14:15.558Z,16.60
2023-04-23T02:16:45.399Z,22.60
2023-04-23T02:19:16.820Z,16.40
2023-04-23T02:21:45.581Z,17.30
2023-04-23T02:24:13.979Z,15.90
2023-04-23T02:26:43.014Z,19.80
2023-04-23T02:29:12.141Z,14.90
2023-04-23T02:31:40.740Z,16.30
2023-04-23T02:34:10.007Z,14.80
2023-04-23T02:36:39.467Z,20.00
2023-04-23T02:39:08.087Z,20.40
2023-04-23T02:41:37.094Z,19.60
2023-04-23T02:44:05.948Z,21.50
2023-04-23T02:46:36.540Z,17.60
2023-04-23T02:49:07.117Z,20.10
2023-04-23T02:51:35.968Z,25.50
2023-04-23T02:54:04.640Z,20.00
2023-04-23T02:56:33.808Z,23.40
2023-04-23T02:59:03.003Z,17.90
2023-04-23T03:01:31.815Z,17.20
2023-04-23T03:04:02.051Z,14.60
2023-04-23T03:06:32.323Z,19.40
2023-04-23T03:09:01.279Z,16.20
2023-04-23T03:11:30.365Z,18.80
2023-04-23T03:14:00.029Z,18.50
2023-04-23T03:16:31.853Z,15.80
2023-04-23T03:19:01.734Z,20.10
2023-04-23T03:21:30.704Z,14.50
2023-04-23T03:24:00.724Z,13.50
2023-04-23T03:26:29.330Z,19.90
2023-04-23T03:28:57.972Z,12.60
2023-04-23T03:31:26.825Z,15.50
2023-04-23T03:33:55.391Z,12.70
2023-04-23T03:36:30.819Z,19.00
2023-04-23T03:41:29.873Z,15.40
2023-04-23T03:43:59.246Z,14.20
2023-04-23T03:46:45.983Z,14.30
2023-04-23T03:49:16.238Z,15.10
2023-04-23T03:51:45.658Z,17.40
2023-04-23T03:54:14.917Z,18.70
2023-04-23T03:57:04.172Z,15.90
2023-04-23T03:59:39.584Z,26.20
2023-04-23T04:02:08.735Z,17.30
2023-04-23T04:04:38.109Z,16.30
2023-04-23T04:07:08.146Z,16.80
2023-04-23T04:09:37.255Z,22.20
2023-04-23T04:12:06.641Z,15.70
2023-04-23T04:14:35.417Z,15.30
2023-04-23T04:17:04.492Z,28.60
2023-04-23T04:19:33.403Z,20.90
2023-04-23T04:22:04.007Z,26.80
2023-04-23T04:24:33.330Z,20.70
2023-04-23T04:27:02.938Z,19.90
2023-04-23T04:29:32.409Z,23.30
2023-04-23T04:32:01.898Z,23.50
2023-04-23T04:34:30.594Z,18.70
2023-04-23T04:36:59.619Z,16.20
2023-04-23T04:39:28.537Z,13.40
2023-04-23T04:41:57.861Z,14.60
2023-04-23T04:44:26.777Z,15.70
2023-04-23T04:46:55.570Z,19.80
2023-04-23T04:49:24.524Z,15.20
2023-04-23T04:51:54.505Z,21.90
2023-04-23T04:54:23.398Z,13.90
2023-04-23T04:56:52.019Z,13.20
2023-04-23T04:59:20.641Z,13.80
2023-04-23T05:01:49.412Z,17.50
2023-04-23T05:04:18.455Z,24.50
2023-04-23T05:06:47.545Z,20.90
2023-04-23T05:09:16.355Z,25.20
2023-04-23T05:11:44.991Z,18.20
2023-04-23T05:14:13.868Z,21.20
2023-04-23T05:16:42.882Z,14.20
2023-04-23T05:19:11.544Z,14.40
2023-04-23T05:21:40.350Z,19.90
2023-04-23T05:24:09.208Z,17.70
2023-04-23T05:26:38.483Z,24.00
2023-04-23T05:29:07.177Z,18.40
2023-04-23T05:31:36.693Z,14.40
2023-04-23T05:34:05.522Z,18.50
2023-04-23T05:36:34.297Z,21.40
2023-04-23T05:39:03.131Z,18.90
2023-04-23T05:41:32.034Z,20.40
2023-04-23T05:44:00.715Z,23.50
2023-04-23T05:46:29.445Z,20.70
2023-04-23T05:48:58.496Z,15.80
2023-04-23T05:51:27.723Z,10.50
2023-04-23T05:53:56.451Z,14.30
2023-04-23T05:56:25.740Z,11.80
2023-04-23T05:58:54.382Z,10.70
2023-04-23T06:01:23.489Z,10.50
2023-04-23T06:03:53.097Z,10.90
2023-04-23T06:06:21.886Z,9.90
2023-04-23T06:08:51.683Z,13.10
2023-04-23T06:11:21.585Z,15.50
2023-04-23T06:16:19.004Z,8.50
2023-04-23T06:18:47.682Z,14.40
2023-04-23T06:21:18.036Z,10.50
2023-04-23T06:23:47.594Z,16.80
2023-04-23T06:26:16.633Z,13.00
2023-04-23T06:28:47.164Z,17.00
2023-04-23T06:31:28.730Z,11.10
2023-04-23T06:33:57.659Z,20.50
2023-04-23T06:36:28.278Z,17.90
2023-04-23T06:38:57.101Z,14.50
2023-04-23T06:41:26.196Z,11.20
2023-04-23T06:44:06.656Z,13.70
2023-04-23T06:46:41.255Z,14.80
2023-04-23T06:49:10.863Z,12.30
2023-04-23T06:51:39.996Z,19.60
2023-04-23T06:54:08.682Z,14.10
2023-04-23T06:56:37.317Z,12.50
2023-04-23T06:59:07.009Z,14.70
2023-04-23T07:01:37.649Z,75.30
2023-04-23T07:04:06.168Z,12.70
2023-04-23T07:06:35.909Z,17.50
2023-04-23T07:09:05.261Z,16.20
2023-04-23T07:11:35.402Z,9.90
2023-04-23T07:14:04.779Z,9.00
2023-04-23T07:16:34.932Z,12.10
2023-04-23T07:21:33.280Z,8.70
2023-04-23T07:24:08.722Z,7.80
2023-04-23T07:26:39.523Z,8.70
2023-04-23T07:29:11.000Z,7.30
2023-04-23T07:31:42.048Z,13.10
2023-04-23T07:34:11.098Z,11.70
2023-04-23T07:36:39.974Z,10.80
2023-04-23T07:39:09.127Z,11.90
2023-04-23T07:41:37.853Z,8.20
2023-04-23T07:44:07.129Z,10.20
2023-04-23T07:46:35.870Z,6.40
2023-04-23T07:49:04.431Z,7.70
2023-04-23T07:51:33.302Z,11.90
2023-04-23T07:54:02.130Z,6.80
2023-04-23T07:56:32.763Z,8.70
2023-04-23T07:59:01.713Z,11.90
2023-04-23T08:01:31.122Z,10.00
2023-04-23T08:04:01.211Z,7.70
2023-04-23T08:06:31.957Z,8.80
2023-04-23T08:09:00.906Z,11.80
2023-04-23T08:11:29.910Z,9.60
2023-04-23T08:13:58.706Z,12.60
2023-04-23T08:16:28.259Z,10.00
2023-04-23T08:19:05.046Z,9.90
2023-04-23T08:21:35.172Z,10.70
2023-04-23T08:24:04.604Z,12.40
2023-04-23T08:26:33.127Z,14.80
2023-04-23T08:29:03.796Z,9.00
2023-04-23T08:31:33.139Z,13.80
2023-04-23T08:34:01.634Z,11.70
2023-04-23T08:36:32.064Z,13.10
2023-04-23T08:39:01.306Z,14.10
2023-04-23T08:41:39.707Z,11.90
2023-04-23T08:44:18.494Z,10.60
2023-04-23T08:46:47.387Z,13.60
2023-04-23T08:49:18.936Z,8.80
2023-04-23T08:51:53.741Z,8.60
2023-04-23T08:54:27.174Z,11.30
2023-04-23T08:56:58.838Z,12.50
2023-04-23T08:59:32.099Z,12.30
2023-04-23T09:02:02.194Z,11.50
2023-04-23T09:04:31.968Z,7.70
2023-04-23T09:07:01.195Z,6.00
2023-04-23T09:09:31.355Z,8.00
2023-04-23T09:12:00.544Z,16.60
2023-04-23T09:14:29.128Z,16.30
2023-04-23T09:16:58.018Z,7.00
2023-04-23T09:19:30.735Z,9.50
2023-04-23T09:22:02.642Z,10.90
2023-04-23T09:24:34.677Z,10.90
2023-04-23T09:27:04.313Z,7.50
2023-04-23T09:32:10.606Z,10.50
2023-04-23T09:34:40.455Z,11.00
2023-04-23T09:37:11.309Z,8.50
2023-04-23T09:39:40.601Z,11.20
2023-04-23T09:42:12.173Z,9.40
2023-04-23T09:44:40.714Z,4.80
2023-04-23T09:47:10.414Z,13.80
2023-04-23T09:49:49.433Z,4.80
2023-04-23T09:52:18.988Z,10.30
2023-04-23T09:54:48.083Z,9.30
2023-04-23T09:57:17.161Z,9.10
2023-04-23T09:59:51.279Z,6.50
2023-04-23T10:02:31.038Z,9.30
2023-04-23T10:05:10.083Z,12.90
2023-04-23T10:07:45.772Z,9.40
2023-04-23T10:10:14.499Z,8.40
2023-04-23T10:12:54.442Z,11.40
2023-04-23T10:15:27.864Z,8.50
2023-04-23T10:17:57.107Z,5.70
2023-04-23T10:20:26.268Z,6.30
2023-04-23T10:22:58.259Z,7.30
2023-04-23T10:25:28.777Z,10.30
2023-04-23T10:28:00.365Z,9.10
2023-04-23T10:30:30.503Z,7.80
2023-04-23T10:33:02.265Z,11.70
2023-04-23T10:35:31.966Z,7.90
2023-04-23T10:38:02.203Z,7.50
2023-04-23T10:40:34.582Z,7.20
2023-04-23T10:43:03.642Z,9.40
2023-04-23T10:45:33.220Z,12.10
2023-04-23T10:48:02.291Z,9.20
2023-04-23T10:50:37.738Z,10.40
2023-04-23T10:53:19.756Z,14.60
2023-04-23T10:55:49.572Z,6.80
2023-04-23T10:58:18.349Z,11.20
2023-04-23T11:00:47.403Z,5.90
2023-04-23T11:03:44.619Z,6.30
2023-04-23T11:06:44.022Z,7.80
2023-04-23T11:09:32.297Z,8.90
2023-04-23T11:12:02.783Z,6.80
2023-04-23T11:14:52.540Z,7.00
2023-04-23T11:17:33.498Z,12.60
2023-04-23T11:20:14.132Z,9.20
2023-04-23T11:22:51.151Z,6.40
2023-04-23T11:25:27.984Z,8.20
2023-04-23T11:28:00.966Z,9.90
2023-04-23T11:30:30.873Z,10.30
2023-04-23T11:33:01.926Z,8.60
2023-04-23T11:35:39.893Z,7.50
2023-04-23T11:38:10.296Z,10.70
2023-04-23T11:40:40.669Z,8.40
2023-04-23T11:43:09.887Z,8.00
2023-04-23T11:45:38.727Z,11.80
2023-04-23T11:48:07.828Z,9.20
2023-04-23T11:50:37.615Z,9.10
2023-04-23T11:53:12.096Z,12.10
2023-04-23T11:55:44.298Z,8.80
2023-04-23T11:58:13.320Z,6.70
2023-04-23T12:00:42.537Z,7.00
2023-04-23T12:03:11.223Z,8.60
2023-04-23T12:05:42.995Z,8.30
2023-04-23T12:08:22.329Z,11.10
2023-04-23T12:10:56.084Z,10.40
2023-04-23T12:13:30.268Z,13.60
2023-04-23T12:16:01.710Z,9.50
2023-04-23T12:18:53.758Z,14.50
2023-04-23T12:21:24.675Z,14.70
2023-04-23T12:23:54.960Z,17.80
2023-04-23T12:26:26.298Z,18.00
2023-04-23T12:28:59.408Z,9.90
2023-04-23T12:31:30.552Z,10.70
2023-04-23T12:34:04.796Z,10.50
2023-04-23T12:36:35.646Z,9.00
2023-04-23T12:39:34.067Z,12.10
2023-04-23T12:42:06.248Z,9.40
2023-04-23T12:44:37.001Z,7.70
2023-04-23T12:47:11.746Z,32.30
2023-04-23T12:49:41.722Z,29.10
2023-04-23T12:52:12.949Z,18.20
2023-04-23T12:54:45.306Z,13.20
2023-04-23T12:57:22.058Z,17.40
2023-04-23T12:59:51.200Z,21.20
2023-04-23T13:02:20.276Z,11.90
2023-04-23T13:04:50.580Z,12.70
2023-04-23T13:07:19.510Z,11.70
2023-04-23T13:09:48.719Z,15.80
2023-04-23T13:12:17.300Z,12.20
2023-04-23T13:14:46.535Z,14.00
2023-04-23T13:17:15.612Z,25.60
2023-04-23T13:19:45.099Z,22.50
2023-04-23T13:22:13.985Z,36.60
2023-04-23T13:24:42.958Z,25.00
2023-04-23T13:27:11.508Z,19.50
2023-04-23T13:29:43.499Z,18.20
2023-04-23T13:32:12.722Z,17.60
2023-04-23T13:34:41.572Z,16.80
2023-04-23T13:37:10.300Z,12.00
2023-04-23T13:39:41.578Z,8.70
2023-04-23T13:42:11.330Z,9.80
2023-04-23T13:44:40.048Z,14.90
2023-04-23T13:47:08.669Z,56.50
2023-04-23T13:49:37.522Z,20.10
2023-04-23T13:52:07.285Z,15.10
2023-04-23T13:54:36.151Z,20.10
2023-04-23T13:57:05.343Z,25.10
2023-04-23T13:59:34.565Z,21.00
2023-04-23T14:02:03.252Z,21.80
2023-04-23T14:04:33.526Z,24.40
2023-04-23T14:07:02.445Z,29.00
2023-04-23T14:09:30.981Z,30.00
2023-04-23T14:12:00.003Z,19.50
2023-04-23T14:14:28.997Z,12.90
2023-04-23T14:16:57.600Z,11.10
2023-04-23T14:19:27.016Z,10.50
2023-04-23T14:21:56.126Z,7.70
2023-04-23T14:24:29.605Z,11.20
2023-04-23T14:26:58.316Z,35.30
2023-04-23T14:29:38.520Z,39.70
2023-04-23T14:32:07.610Z,20.70
2023-04-23T14:34:36.605Z,16.50
2023-04-23T14:37:06.002Z,15.60
2023-04-23T14:39:35.145Z,12.10
2023-04-23T14:42:03.865Z,20.60
2023-04-23T14:44:33.024Z,13.60
2023-04-23T14:47:01.861Z,13.80
2023-04-23T14:49:31.250Z,13.50
2023-04-23T14:51:59.948Z,22.80
2023-04-23T14:54:28.633Z,24.40
2023-04-23T14:56:57.121Z,18.00
2023-04-23T14:59:26.498Z,20.50
2023-04-23T15:01:56.857Z,20.00
2023-04-23T15:04:25.747Z,14.90
2023-04-23T15:06:55.425Z,18.50
2023-04-23T15:09:24.011Z,14.80
2023-04-23T15:11:52.519Z,15.70
2023-04-23T15:14:31.426Z,15.20
2023-04-23T15:17:00.390Z,14.30
2023-04-23T15:19:31.340Z,13.60
2023-04-23T15:22:00.382Z,16.60
2023-04-23T15:24:29.023Z,22.10
2023-04-23T15:26:59.631Z,30.40
2023-04-23T15:29:28.861Z,23.30
2023-04-23T15:31:59.045Z,43.30
2023-04-23T15:36:56.460Z,28.70
2023-04-23T15:39:26.803Z,19.50
2023-04-23T15:41:57.014Z,17.10
2023-04-23T15:49:24.348Z,14.70
2023-04-23T15:51:54.679Z,14.30
2023-04-23T15:54:24.061Z,10.90
2023-04-23T15:56:52.547Z,12.10
2023-04-23T15:59:21.693Z,17.30
2023-04-23T16:01:50.600Z,10.60
2023-04-23T16:04:19.241Z,8.70
2023-04-23T16:06:48.459Z,8.60
2023-04-23T16:09:17.734Z,14.50
2023-04-23T16:11:46.399Z,16.50
2023-04-23T16:14:15.182Z,13.70
2023-04-23T16:16:44.200Z,12.60
2023-04-23T16:19:12.808Z,11.30
2023-04-23T16:21:41.441Z,12.30
2023-04-23T16:24:10.232Z,17.90
2023-04-23T16:26:39.538Z,26.30
2023-04-23T16:29:21.581Z,18.60
2023-04-23T16:31:51.421Z,29.10
2023-04-23T16:34:20.196Z,19.00
2023-04-23T16:36:48.741Z,16.60
2023-04-23T16:39:17.405Z,17.10
2023-04-23T16:41:46.566Z,15.90
2023-04-23T16:44:15.121Z,32.30
2023-04-23T16:46:43.797Z,19.00
2023-04-23T16:49:14.269Z,20.50
2023-04-23T16:51:42.799Z,21.00
2023-04-23T16:54:11.391Z,18.70
2023-04-23T16:56:40.748Z,17.50
2023-04-23T16:59:09.470Z,22.30
2023-04-23T17:01:38.139Z,22.80
2023-04-23T17:04:17.107Z,17.20
2023-04-23T17:07:06.004Z,15.20
2023-04-23T17:10:05.730Z,17.40
2023-04-23T17:12:52.760Z,16.50
2023-04-23T17:15:42.016Z,25.90
2023-04-23T17:18:34.976Z,23.80
2023-04-23T17:21:28.177Z,18.70
2023-04-23T17:24:13.161Z,19.50
2023-04-23T17:27:04.093Z,18.00
2023-04-23T17:29:50.804Z,16.60
2023-04-23T17:32:40.729Z,21.90
2023-04-23T17:35:29.258Z,27.70
2023-04-23T17:38:21.404Z,34.80
2023-04-23T17:41:10.371Z,32.50
2023-04-23T17:43:50.114Z,27.80
2023-04-23T17:46:19.645Z,22.50
2023-04-23T17:48:48.651Z,45.00
2023-04-23T17:51:17.365Z,25.60
2023-04-23T17:53:48.745Z,53.90
2023-04-23T17:56:17.430Z,62.00
2023-04-23T17:58:46.344Z,62.50
2023-04-23T18:01:15.863Z,64.80
2023-04-23T18:03:45.075Z,60.90
2023-04-23T18:06:14.202Z,51.80
2023-04-23T18:08:43.611Z,34.40
2023-04-23T18:11:12.611Z,30.60
2023-04-23T18:13:44.138Z,29.80
2023-04-23T18:16:13.062Z,32.80
2023-04-23T18:18:41.845Z,29.40
2023-04-23T18:21:10.756Z,32.10
2023-04-23T18:23:39.988Z,38.20
2023-04-23T18:26:08.524Z,38.00
2023-04-23T18:28:37.927Z,24.60
2023-04-23T18:31:06.682Z,35.20
2023-04-23T18:33:52.900Z,69.40
2023-04-23T18:36:27.589Z,64.40
2023-04-23T18:38:56.527Z,49.00
2023-04-23T18:41:25.266Z,55.00
2023-04-23T18:43:53.724Z,42.00
2023-04-23T18:46:23.338Z,41.70
2023-04-23T18:49:09.882Z,39.10
2023-04-23T18:51:44.339Z,52.00
2023-04-23T18:54:17.629Z,32.10
2023-04-23T18:56:47.139Z,26.40
2023-04-23T18:59:15.704Z,30.30
2023-04-23T19:01:46.929Z,27.20
2023-04-23T19:04:16.737Z,33.00
2023-04-23T19:06:46.090Z,31.00
2023-04-23T19:09:14.884Z,30.60
2023-04-23T19:11:43.856Z,37.80
2023-04-23T19:14:12.599Z,37.50
2023-04-23T19:16:41.121Z,31.90
2023-04-23T19:19:09.922Z,39.00
2023-04-23T19:21:38.913Z,28.70
2023-04-23T19:24:07.782Z,27.60
2023-04-23T19:26:36.389Z,27.90
2023-04-23T19:29:04.936Z,24.40
2023-04-23T19:31:33.819Z,25.60
2023-04-23T19:34:02.506Z,23.60
2023-04-23T19:36:31.339Z,25.90
2023-04-23T19:39:00.229Z,24.40
2023-04-23T19:41:28.773Z,22.90
2023-04-23T19:43:57.225Z,24.80
2023-04-23T19:46:26.362Z,22.20
2023-04-23T19:48:56.219Z,22.50
2023-04-23T19:51:29.672Z,21.20
2023-04-23T19:53:58.879Z,23.70
2023-04-23T19:56:27.398Z,21.90
2023-04-23T19:58:56.796Z,20.90
2023-04-23T20:01:28.369Z,20.40
2023-04-23T20:03:57.483Z,21.80
2023-04-23T20:06:26.708Z,18.10
2023-04-23T20:09:08.026Z,13.00
2023-04-23T20:11:37.211Z,12.50
2023-04-23T20:14:06.336Z,15.80
2023-04-23T20:16:35.170Z,26.10
2023-04-23T20:19:05.273Z,23.00
2023-04-23T20:21:33.694Z,14.50
2023-04-23T20:24:02.275Z,13.30
2023-04-23T20:26:31.021Z,28.90
2023-04-23T20:28:59.792Z,49.00
2023-04-23T20:31:28.699Z,28.10
2023-04-23T20:33:58.066Z,24.30
2023-04-23T20:36:32.028Z,16.90
2023-04-23T20:39:03.519Z,20.60
2023-04-23T20:41:37.315Z,13.20
2023-04-23T20:44:06.262Z,16.60
2023-04-23T20:46:37.105Z,25.70
2023-04-23T20:49:05.773Z,28.30
2023-04-23T20:51:34.702Z,13.00
2023-04-23T20:54:03.650Z,12.50
2023-04-23T20:56:33.260Z,13.20
2023-04-23T20:59:01.753Z,12.10
2023-04-23T21:01:30.313Z,14.20
2023-04-23T21:04:00.971Z,13.30
2023-04-23T21:06:31.607Z,12.00
2023-04-23T21:09:00.479Z,13.70
2023-04-23T21:14:01.053Z,13.10
2023-04-23T21:16:30.163Z,12.70
2023-04-23T21:18:58.979Z,10.70
2023-04-23T21:21:29.936Z,22.60
2023-04-23T21:24:01.244Z,14.80
2023-04-23T21:26:30.649Z,17.00
2023-04-23T21:28:59.741Z,16.80
2023-04-23T21:31:54.394Z,20.00
2023-04-23T21:34:23.455Z,19.70
2023-04-23T21:36:51.871Z,16.70
2023-04-23T21:39:20.456Z,14.70
2023-04-23T21:41:49.050Z,32.70
2023-04-23T21:44:17.643Z,33.60
2023-04-23T21:46:47.314Z,27.50
2023-04-23T21:49:17.572Z,27.70
2023-04-23T21:54:15.354Z,21.20
2023-04-23T21:56:44.033Z,15.70
2023-04-23T21:59:12.635Z,26.70
2023-04-23T22:01:41.424Z,16.80
2023-04-23T22:04:10.529Z,16.20
2023-04-23T22:06:39.853Z,14.10
2023-04-23T22:09:08.994Z,16.90
2023-04-23T22:11:37.476Z,17.20
2023-04-23T22:14:06.643Z,17.00
2023-04-23T22:16:36.160Z,16.90
2023-04-23T22:19:04.910Z,16.80
2023-04-23T22:21:33.811Z,18.70
2023-04-23T22:24:04.315Z,16.90
2023-04-23T22:26:34.260Z,14.40
2023-04-23T22:29:04.763Z,10.00
2023-04-23T22:31:33.267Z,15.90
2023-04-23T22:34:01.726Z,22.20
2023-04-23T22:36:32.403Z,15.70
2023-04-23T22:39:02.240Z,16.10
2023-04-23T22:41:33.164Z,13.00
2023-04-23T22:44:02.720Z,14.70
2023-04-23T22:46:32.118Z,12.70
2023-04-23T22:49:01.477Z,17.50
2023-04-23T22:51:34.097Z,12.60
2023-04-23T22:54:02.986Z,15.60
2023-04-23T22:56:31.580Z,17.00
2023-04-23T22:59:00.466Z,24.10
2023-04-23T23:01:29.367Z,18.50
2023-04-23T23:03:57.992Z,18.80
2023-04-23T23:06:27.263Z,19.50
2023-04-23T23:08:55.684Z,15.70
2023-04-23T23:11:26.352Z,15.80
2023-04-23T23:13:55.539Z,16.80
2023-04-23T23:16:24.418Z,16.20
2023-04-23T23:18:53.755Z,15.80
2023-04-23T23:21:22.325Z,16.70
2023-04-23T23:23:50.984Z,17.80
2023-04-23T23:26:20.932Z,16.70
2023-04-23T23:28:49.727Z,19.90
2023-04-23T23:31:18.635Z,15.30
2023-04-23T23:33:47.397Z,16.70
2023-04-23T23:36:16.505Z,16.00
2023-04-23T23:38:45.200Z,18.10
2023-04-23T23:41:13.658Z,27.60
2023-04-23T23:43:42.743Z,17.10
2023-04-23T23:46:11.334Z,16.90
2023-04-23T23:48:39.861Z,16.90
2023-04-23T23:51:10.013Z,17.00
2023-04-23T23:53:39.032Z,16.70
2023-04-23T23:56:07.519Z,15.30
2023-04-23T23:58:36.857Z,15.70
